createdAt,value
2023-01-15T00:01:48.575Z,8.21
2023-01-15T00:04:16.691Z,7.88
2023-01-15T00:06:44.530Z,7.65
2023-01-15T00:09:12.228Z,7.49
2023-01-15T00:11:41.729Z,7.34
2023-01-15T00:14:09.466Z,7.21
2023-01-15T00:16:37.578Z,7.04
2023-01-15T00:19:08.375Z,6.94
2023-01-15T00:21:36.174Z,6.82
2023-01-15T00:24:21.378Z,6.73
2023-01-15T00:27:06.525Z,6.66
2023-01-15T00:29:34.742Z,6.60
2023-01-15T00:32:02.898Z,6.54
2023-01-15T00:34:31.240Z,6.48
2023-01-15T00:36:58.938Z,6.46
2023-01-15T00:39:27.178Z,6.41
2023-01-15T00:41:55.235Z,6.37
2023-01-15T00:44:22.932Z,6.33
2023-01-15T00:46:50.755Z,6.30
2023-01-15T00:49:18.550Z,6.28
2023-01-15T00:51:46.557Z,6.26
2023-01-15T00:54:14.293Z,6.26
2023-01-15T00:56:42.153Z,6.24
2023-01-15T00:59:09.799Z,6.22
2023-01-15T01:01:37.816Z,6.23
2023-01-15T01:04:06.071Z,6.23
2023-01-15T01:06:33.886Z,6.23
2023-01-15T01:09:01.644Z,6.23
2023-01-15T01:11:34.264Z,6.23
2023-01-15T01:14:02.818Z,6.24
2023-01-15T01:16:32.400Z,6.24
2023-01-15T01:19:00.470Z,6.25
2023-01-15T01:21:28.238Z,6.26
2023-01-15T01:23:55.927Z,6.26
2023-01-15T01:26:23.596Z,6.25
2023-01-15T01:28:51.845Z,6.25
2023-01-15T01:31:19.749Z,6.25
2023-01-15T01:33:47.463Z,6.25
2023-01-15T01:36:15.626Z,6.25
2023-01-15T01:38:43.267Z,6.24
2023-01-15T01:41:11.323Z,6.24
2023-01-15T01:43:39.148Z,6.21
2023-01-15T01:46:06.813Z,6.22
2023-01-15T01:48:35.062Z,6.24
2023-01-15T01:51:02.706Z,6.29
2023-01-15T01:53:30.758Z,6.35
2023-01-15T01:55:58.734Z,6.40
2023-01-15T01:58:26.782Z,6.43
2023-01-15T02:00:54.463Z,6.45
2023-01-15T02:03:22.141Z,6.46
2023-01-15T02:05:50.172Z,6.46
2023-01-15T02:08:17.873Z,6.47
2023-01-15T02:10:45.495Z,6.47
2023-01-15T02:13:13.079Z,6.47
2023-01-15T02:15:40.753Z,6.47
2023-01-15T02:18:08.758Z,6.48
2023-01-15T02:20:36.347Z,6.47
2023-01-15T02:23:03.973Z,6.47
2023-01-15T02:25:31.614Z,6.48
2023-01-15T02:27:59.219Z,6.50
2023-01-15T02:30:27.204Z,6.51
2023-01-15T02:32:55.009Z,6.51
2023-01-15T02:35:22.908Z,6.52
2023-01-15T02:37:50.468Z,6.53
2023-01-15T02:40:18.492Z,6.56
2023-01-15T02:42:46.086Z,6.59
2023-01-15T02:45:13.906Z,6.60
2023-01-15T02:47:41.527Z,6.63
2023-01-15T02:50:09.152Z,6.64
2023-01-15T02:52:36.797Z,6.65
2023-01-15T02:55:04.805Z,6.67
2023-01-15T02:57:32.602Z,6.67
2023-01-15T03:00:00.187Z,6.67
2023-01-15T03:02:28.406Z,6.67
2023-01-15T03:04:56.049Z,6.66
2023-01-15T03:07:24.028Z,6.69
2023-01-15T03:09:51.835Z,6.70
2023-01-15T03:12:19.405Z,6.70
2023-01-15T03:14:47.055Z,6.69
2023-01-15T03:17:13.642Z,6.71
2023-01-15T03:19:41.577Z,6.70
2023-01-15T03:22:09.359Z,6.71
2023-01-15T03:24:36.977Z,6.69
2023-01-15T03:27:04.557Z,6.69
2023-01-15T03:29:32.142Z,6.69
2023-01-15T03:32:00.124Z,6.68
2023-01-15T03:34:27.740Z,6.67
2023-01-15T03:36:55.358Z,6.68
2023-01-15T03:39:23.121Z,6.66
2023-01-15T03:41:50.723Z,6.67
2023-01-15T03:44:18.730Z,6.66
2023-01-15T03:46:47.478Z,6.66
2023-01-15T03:49:15.105Z,6.67
2023-01-15T03:51:42.662Z,6.68
2023-01-15T03:54:10.357Z,6.67
2023-01-15T03:56:37.993Z,6.68
2023-01-15T03:59:05.749Z,6.68
2023-01-15T04:01:34.256Z,6.67
2023-01-15T04:04:01.963Z,6.67
2023-01-15T04:06:29.529Z,6.68
2023-01-15T04:08:57.880Z,6.67
2023-01-15T04:11:25.703Z,6.69
2023-01-15T04:13:54.417Z,6.68
2023-01-15T04:16:22.052Z,6.67
2023-01-15T04:18:49.588Z,6.66
2023-01-15T04:21:17.546Z,6.63
2023-01-15T04:23:46.258Z,6.60
2023-01-15T04:26:13.823Z,6.58
2023-01-15T04:28:41.406Z,6.58
2023-01-15T04:31:09.580Z,6.57
2023-01-15T04:33:37.544Z,6.56
2023-01-15T04:36:05.144Z,6.57
2023-01-15T04:38:32.760Z,6.55
2023-01-15T04:41:17.783Z,6.58
2023-01-15T04:44:14.569Z,6.59
2023-01-15T04:46:42.296Z,6.59
2023-01-15T04:49:09.908Z,6.59
2023-01-15T04:51:37.657Z,6.59
2023-01-15T04:54:05.614Z,6.60
2023-01-15T04:56:33.582Z,6.61
2023-01-15T04:59:01.413Z,6.61
2023-01-15T05:01:29.088Z,6.62
2023-01-15T05:03:58.415Z,6.63
2023-01-15T05:06:26.074Z,6.64
2023-01-15T05:08:54.010Z,6.64
2023-01-15T05:11:21.791Z,6.63
2023-01-15T05:13:49.755Z,6.63
2023-01-15T05:16:17.362Z,6.63
2023-01-15T05:18:44.927Z,6.63
2023-01-15T05:21:14.138Z,6.61
2023-01-15T05:23:41.764Z,6.61
2023-01-15T05:26:09.349Z,6.60
2023-01-15T05:28:36.951Z,6.60
2023-01-15T05:31:04.604Z,6.60
2023-01-15T05:33:32.576Z,6.59
2023-01-15T05:36:01.363Z,6.57
2023-01-15T05:38:28.961Z,6.56
2023-01-15T05:40:56.530Z,6.55
2023-01-15T05:43:24.130Z,6.56
2023-01-15T05:45:52.061Z,6.56
2023-01-15T05:48:19.679Z,6.57
2023-01-15T05:50:47.292Z,6.57
2023-01-15T05:53:14.876Z,6.57
2023-01-15T05:55:42.442Z,6.56
2023-01-15T05:58:10.908Z,6.53
2023-01-15T06:00:38.532Z,6.55
2023-01-15T06:03:06.089Z,6.55
2023-01-15T06:05:33.679Z,6.56
2023-01-15T06:08:01.560Z,6.56
2023-01-15T06:10:29.492Z,6.55
2023-01-15T06:12:57.127Z,6.55
2023-01-15T06:15:24.705Z,6.56
2023-01-15T06:17:52.312Z,6.60
2023-01-15T06:20:19.936Z,6.61
2023-01-15T06:22:47.872Z,6.62
2023-01-15T06:25:15.823Z,6.64
2023-01-15T06:27:44.705Z,6.66
2023-01-15T06:30:12.305Z,6.69
2023-01-15T06:32:39.887Z,6.70
2023-01-15T06:35:07.931Z,6.72
2023-01-15T06:37:35.715Z,6.72
2023-01-15T06:40:03.817Z,6.73
2023-01-15T06:42:48.954Z,6.74
2023-01-15T06:45:34.218Z,6.74
2023-01-15T06:48:02.134Z,6.75
2023-01-15T06:50:29.699Z,6.75
2023-01-15T06:52:57.298Z,6.75
2023-01-15T06:55:25.245Z,6.75
2023-01-15T06:57:54.197Z,6.75
2023-01-15T07:00:23.250Z,6.75
2023-01-15T07:02:50.852Z,6.77
2023-01-15T07:05:18.522Z,6.77
2023-01-15T07:07:46.132Z,6.77
2023-01-15T07:10:14.105Z,6.77
2023-01-15T07:12:41.904Z,6.64
2023-01-15T07:15:09.512Z,6.53
2023-01-15T07:17:37.163Z,6.44
2023-01-15T07:20:05.174Z,6.38
2023-01-15T07:22:33.120Z,6.33
2023-01-15T07:25:00.792Z,6.32
2023-01-15T07:27:28.406Z,6.32
2023-01-15T07:29:55.963Z,6.33
2023-01-15T07:32:23.612Z,6.37
2023-01-15T07:34:51.594Z,6.41
2023-01-15T07:37:19.192Z,6.48
2023-01-15T07:39:46.843Z,6.54
2023-01-15T07:42:32.256Z,6.59
2023-01-15T07:45:17.687Z,6.63
2023-01-15T07:48:02.651Z,6.66
2023-01-15T07:50:30.281Z,6.70
2023-01-15T07:52:57.904Z,6.71
2023-01-15T07:55:26.160Z,6.72
2023-01-15T07:57:54.124Z,6.74
2023-01-15T08:00:21.734Z,6.76
2023-01-15T08:02:51.386Z,6.78
2023-01-15T08:05:19.144Z,6.81
2023-01-15T08:07:48.177Z,6.83
2023-01-15T08:10:15.883Z,6.84
2023-01-15T08:13:00.819Z,6.85
2023-01-15T08:15:28.467Z,6.86
2023-01-15T08:17:56.163Z,6.89
2023-01-15T08:20:23.987Z,6.89
2023-01-15T08:22:51.749Z,6.91
2023-01-15T08:25:19.490Z,6.92
2023-01-15T08:27:47.483Z,6.95
2023-01-15T08:30:15.537Z,6.97
2023-01-15T08:32:43.307Z,7.02
2023-01-15T08:35:11.015Z,7.05
2023-01-15T08:37:38.717Z,7.08
2023-01-15T08:40:06.455Z,7.10
2023-01-15T08:42:34.569Z,7.10
2023-01-15T08:45:02.725Z,7.10
2023-01-15T08:47:32.101Z,7.11
2023-01-15T08:49:59.907Z,7.11
2023-01-15T08:52:27.603Z,7.12
2023-01-15T08:54:55.704Z,7.13
2023-01-15T08:57:23.499Z,7.14
2023-01-15T08:59:51.202Z,7.10
2023-01-15T09:02:19.174Z,6.97
2023-01-15T09:04:47.027Z,6.87
2023-01-15T09:07:15.557Z,6.84
2023-01-15T09:09:43.372Z,6.86
2023-01-15T09:12:11.281Z,6.89
2023-01-15T09:14:57.414Z,6.93
2023-01-15T09:17:27.009Z,6.95
2023-01-15T09:19:54.718Z,6.97
2023-01-15T09:22:22.525Z,6.98
2023-01-15T09:24:51.009Z,6.98
2023-01-15T09:27:19.086Z,7.01
2023-01-15T09:29:47.176Z,7.03
2023-01-15T09:32:14.973Z,7.03
2023-01-15T09:34:43.023Z,7.03
2023-01-15T09:37:10.905Z,7.03
2023-01-15T09:39:38.871Z,7.01
2023-01-15T09:42:08.777Z,6.95
2023-01-15T09:44:36.723Z,6.88
2023-01-15T09:47:04.628Z,6.84
2023-01-15T09:49:32.812Z,6.77
2023-01-15T09:52:00.655Z,6.75
2023-01-15T09:54:29.065Z,6.72
2023-01-15T09:56:56.936Z,6.72
2023-01-15T09:59:24.620Z,6.82
2023-01-15T10:01:52.648Z,7.01
2023-01-15T10:04:20.623Z,7.16
2023-01-15T10:06:49.059Z,7.28
2023-01-15T10:09:17.088Z,7.50
2023-01-15T10:12:02.676Z,7.69
2023-01-15T10:14:30.563Z,7.80
2023-01-15T10:16:59.626Z,7.87
2023-01-15T10:19:40.267Z,7.93
2023-01-15T10:22:12.106Z,8.28
2023-01-15T10:24:40.035Z,8.90
2023-01-15T10:27:08.585Z,9.20
2023-01-15T10:29:36.981Z,8.92
2023-01-15T10:32:05.362Z,8.57
2023-01-15T10:34:33.134Z,8.34
2023-01-15T10:37:01.111Z,8.23
2023-01-15T10:39:29.914Z,8.12
2023-01-15T10:41:57.769Z,8.08
2023-01-15T10:44:25.668Z,8.25
2023-01-15T10:46:55.074Z,8.38
2023-01-15T10:49:23.831Z,8.43
2023-01-15T10:51:53.567Z,8.51
2023-01-15T10:54:21.457Z,8.32
2023-01-15T10:56:49.440Z,8.13
2023-01-15T10:59:18.061Z,7.98
2023-01-15T11:01:46.030Z,7.88
2023-01-15T11:04:15.045Z,7.85
2023-01-15T11:06:43.055Z,8.27
2023-01-15T11:09:12.170Z,8.55
2023-01-15T11:12:03.924Z,8.45
2023-01-15T11:14:51.747Z,8.24
2023-01-15T11:17:36.800Z,8.23
2023-01-15T11:20:05.137Z,8.32
2023-01-15T11:22:33.115Z,8.20
2023-01-15T11:25:02.302Z,8.12
2023-01-15T11:27:30.194Z,8.23
2023-01-15T11:29:58.775Z,8.18
2023-01-15T11:32:28.787Z,8.09
2023-01-15T11:34:57.045Z,8.40
2023-01-15T11:37:25.731Z,8.52
2023-01-15T11:39:53.734Z,8.42
2023-01-15T11:42:38.695Z,8.30
2023-01-15T11:45:23.850Z,8.18
2023-01-15T11:48:09.595Z,8.09
2023-01-15T11:50:46.654Z,8.05
2023-01-15T11:53:14.526Z,8.01
2023-01-15T11:55:42.956Z,7.95
2023-01-15T11:58:11.298Z,7.90
2023-01-15T12:00:39.152Z,7.88
2023-01-15T12:03:07.067Z,7.88
2023-01-15T12:05:35.106Z,7.88
2023-01-15T12:08:02.968Z,7.88
2023-01-15T12:10:51.139Z,7.90
2023-01-15T12:13:19.101Z,7.90
2023-01-15T12:15:51.834Z,7.93
2023-01-15T12:18:19.883Z,7.92
2023-01-15T12:20:47.741Z,7.94
2023-01-15T12:23:16.337Z,7.92
2023-01-15T12:25:44.339Z,7.90
2023-01-15T12:28:12.196Z,7.87
2023-01-15T12:30:40.313Z,7.85
2023-01-15T12:33:08.358Z,7.81
2023-01-15T12:35:36.650Z,7.79
2023-01-15T12:38:06.184Z,7.78
2023-01-15T12:40:33.989Z,7.77
2023-01-15T12:43:19.361Z,7.78
2023-01-15T12:45:47.201Z,7.80
2023-01-15T12:48:15.339Z,7.81
2023-01-15T12:50:45.436Z,7.84
2023-01-15T12:53:13.431Z,7.81
2023-01-15T12:55:43.002Z,7.75
2023-01-15T12:58:12.434Z,7.70
2023-01-15T13:00:40.747Z,7.68
2023-01-15T13:03:08.715Z,7.69
2023-01-15T13:05:36.980Z,7.74
2023-01-15T13:08:04.866Z,7.75
2023-01-15T13:10:35.585Z,7.75
2023-01-15T13:13:03.755Z,7.75
2023-01-15T13:15:31.671Z,7.74
2023-01-15T13:18:01.035Z,7.73
2023-01-15T13:20:29.065Z,7.77
2023-01-15T13:22:57.626Z,7.81
2023-01-15T13:25:27.244Z,7.96
2023-01-15T13:27:56.649Z,8.06
2023-01-15T13:30:24.500Z,8.04
2023-01-15T13:32:52.422Z,8.20
2023-01-15T13:35:21.080Z,8.28
2023-01-15T13:37:49.495Z,8.24
2023-01-15T13:40:17.874Z,8.13
2023-01-15T13:42:45.725Z,8.02
2023-01-15T13:45:13.663Z,7.91
2023-01-15T13:47:44.319Z,7.85
2023-01-15T13:50:12.311Z,7.79
2023-01-15T13:52:40.309Z,7.75
2023-01-15T13:55:08.338Z,7.71
2023-01-15T13:57:36.417Z,7.68
2023-01-15T14:00:05.337Z,7.67
2023-01-15T14:02:35.012Z,7.65
2023-01-15T14:05:03.930Z,7.63
2023-01-15T14:07:31.795Z,7.60
2023-01-15T14:09:59.698Z,7.59
2023-01-15T14:12:29.649Z,7.59
2023-01-15T14:14:57.804Z,7.59
2023-01-15T14:17:25.745Z,7.59
2023-01-15T14:19:53.677Z,7.59
2023-01-15T14:22:21.663Z,7.59
2023-01-15T14:24:50.065Z,7.57
2023-01-15T14:27:18.393Z,7.58
2023-01-15T14:29:46.268Z,7.59
2023-01-15T14:32:14.104Z,7.59
2023-01-15T14:34:42.109Z,7.58
2023-01-15T14:37:10.809Z,7.58
2023-01-15T14:39:38.996Z,7.59
2023-01-15T14:42:24.346Z,7.59
2023-01-15T14:44:52.607Z,7.59
2023-01-15T14:47:20.855Z,7.59
2023-01-15T14:49:50.353Z,7.55
2023-01-15T14:52:18.154Z,7.50
2023-01-15T14:54:45.995Z,7.47
2023-01-15T14:57:13.937Z,7.42
2023-01-15T14:59:42.352Z,7.42
2023-01-15T15:02:10.631Z,7.43
2023-01-15T15:04:38.693Z,7.44
2023-01-15T15:07:07.635Z,7.43
2023-01-15T15:09:35.653Z,7.40
2023-01-15T15:12:22.354Z,7.38
2023-01-15T15:14:50.415Z,7.41
2023-01-15T15:17:18.685Z,7.40
2023-01-15T15:19:46.683Z,7.40
2023-01-15T15:22:14.534Z,7.40
2023-01-15T15:24:43.225Z,7.43
2023-01-15T15:27:11.744Z,7.48
2023-01-15T15:29:39.594Z,7.51
2023-01-15T15:32:07.550Z,7.52
2023-01-15T15:34:35.791Z,7.51
2023-01-15T15:37:03.963Z,7.49
2023-01-15T15:39:32.297Z,7.45
2023-01-15T15:42:17.453Z,7.41
2023-01-15T15:45:02.530Z,7.36
2023-01-15T15:48:03.456Z,7.30
2023-01-15T15:50:31.529Z,7.27
2023-01-15T15:52:59.415Z,7.23
2023-01-15T15:55:27.435Z,7.20
2023-01-15T15:57:55.352Z,7.16
2023-01-15T16:00:23.758Z,7.15
2023-01-15T16:02:52.230Z,7.14
2023-01-15T16:05:20.210Z,7.14
2023-01-15T16:07:48.197Z,7.16
2023-01-15T16:10:16.630Z,7.17
2023-01-15T16:12:45.039Z,7.19
2023-01-15T16:15:12.932Z,7.21
2023-01-15T16:17:40.875Z,7.23
2023-01-15T16:20:08.839Z,7.24
2023-01-15T16:22:36.780Z,7.23
2023-01-15T16:25:05.101Z,7.19
2023-01-15T16:27:33.438Z,7.19
2023-01-15T16:30:01.700Z,7.20
2023-01-15T16:32:29.801Z,7.23
2023-01-15T16:34:57.718Z,7.26
2023-01-15T16:37:26.086Z,7.28
2023-01-15T16:39:54.608Z,7.30
2023-01-15T16:42:22.600Z,7.30
2023-01-15T16:44:51.048Z,7.31
2023-01-15T16:47:19.169Z,7.32
2023-01-15T16:49:47.615Z,7.33
2023-01-15T16:52:15.674Z,7.35
2023-01-15T16:54:44.020Z,7.35
2023-01-15T16:57:11.976Z,7.33
2023-01-15T16:59:41.175Z,7.29
2023-01-15T17:02:10.051Z,7.22
2023-01-15T17:04:38.534Z,7.17
2023-01-15T17:07:06.417Z,7.17
2023-01-15T17:09:34.437Z,7.18
2023-01-15T17:12:02.903Z,7.18
2023-01-15T17:14:31.792Z,7.17
2023-01-15T17:16:59.816Z,7.14
2023-01-15T17:19:27.787Z,7.16
2023-01-15T17:21:55.699Z,7.14
2023-01-15T17:24:23.906Z,7.14
2023-01-15T17:26:52.294Z,7.14
2023-01-15T17:29:20.195Z,7.13
2023-01-15T17:31:48.153Z,7.10
2023-01-15T17:34:16.735Z,7.08
2023-01-15T17:36:44.598Z,7.07
2023-01-15T17:39:15.073Z,7.07
2023-01-15T17:41:43.333Z,7.06
2023-01-15T17:44:11.139Z,7.03
2023-01-15T17:46:39.266Z,7.00
2023-01-15T17:49:07.038Z,7.00
2023-01-15T17:51:35.237Z,7.01
2023-01-15T17:54:03.859Z,6.99
2023-01-15T17:56:49.707Z,6.97
2023-01-15T17:59:35.222Z,6.94
2023-01-15T18:02:21.916Z,6.92
2023-01-15T18:05:07.264Z,6.91
2023-01-15T18:07:36.204Z,6.93
2023-01-15T18:10:04.058Z,6.97
2023-01-15T18:12:33.237Z,7.02
2023-01-15T18:15:01.082Z,7.04
2023-01-15T18:17:31.908Z,7.05
2023-01-15T18:20:00.187Z,7.01
2023-01-15T18:22:29.153Z,6.95
2023-01-15T18:24:57.685Z,6.89
2023-01-15T18:27:30.418Z,6.87
2023-01-15T18:29:59.068Z,6.88
2023-01-15T18:32:27.052Z,6.87
2023-01-15T18:34:55.191Z,6.87
2023-01-15T18:37:23.635Z,6.88
2023-01-15T18:39:51.526Z,6.90
2023-01-15T18:42:37.065Z,6.91
2023-01-15T18:45:22.167Z,6.93
2023-01-15T18:47:50.975Z,6.95
2023-01-15T18:50:18.873Z,6.94
2023-01-15T18:52:53.071Z,6.94
2023-01-15T18:55:21.553Z,6.93
2023-01-15T18:57:49.867Z,6.93
2023-01-15T19:00:19.133Z,6.92
2023-01-15T19:02:47.830Z,6.93
2023-01-15T19:05:17.233Z,6.92
2023-01-15T19:07:45.345Z,6.89
2023-01-15T19:10:13.262Z,6.78
2023-01-15T19:12:41.918Z,6.65
2023-01-15T19:15:26.925Z,6.56
2023-01-15T19:18:12.533Z,6.51
2023-01-15T19:20:40.547Z,6.48
2023-01-15T19:23:10.700Z,6.47
2023-01-15T19:25:38.682Z,6.46
2023-01-15T19:28:06.665Z,6.43
2023-01-15T19:30:35.597Z,6.43
2023-01-15T19:33:03.404Z,6.42
2023-01-15T19:35:32.301Z,6.43
2023-01-15T19:38:00.143Z,6.45
2023-01-15T19:40:29.095Z,6.46
2023-01-15T19:43:14.547Z,6.48
2023-01-15T19:46:11.852Z,6.48
2023-01-15T19:48:57.331Z,6.49
2023-01-15T19:51:45.271Z,6.49
2023-01-15T19:54:13.224Z,6.48
2023-01-15T19:56:41.810Z,6.46
2023-01-15T19:59:09.613Z,6.47
2023-01-15T20:01:39.316Z,6.48
2023-01-15T20:04:07.334Z,6.48
2023-01-15T20:06:35.307Z,6.50
2023-01-15T20:09:03.920Z,6.51
2023-01-15T20:11:52.365Z,6.53
2023-01-15T20:14:19.236Z,6.54
2023-01-15T20:16:47.332Z,6.53
2023-01-15T20:19:15.798Z,6.50
2023-01-15T20:21:43.750Z,6.45
2023-01-15T20:24:11.601Z,6.38
2023-01-15T20:26:39.700Z,6.32
2023-01-15T20:29:07.730Z,6.28
2023-01-15T20:31:36.031Z,6.25
2023-01-15T20:34:03.962Z,6.23
2023-01-15T20:36:36.048Z,6.20
2023-01-15T20:39:04.074Z,6.20
2023-01-15T20:41:50.208Z,6.21
2023-01-15T20:44:35.459Z,6.21
2023-01-15T20:47:23.941Z,6.20
2023-01-15T20:49:50.760Z,6.23
2023-01-15T20:52:18.982Z,6.25
2023-01-15T20:54:46.775Z,6.26
2023-01-15T20:57:14.916Z,6.29
2023-01-15T20:59:42.863Z,6.28
2023-01-15T21:02:11.328Z,6.28
2023-01-15T21:04:39.479Z,6.31
2023-01-15T21:07:07.391Z,6.33
2023-01-15T21:09:35.308Z,6.31
2023-01-15T21:12:03.074Z,6.28
2023-01-15T21:14:31.033Z,6.25
2023-01-15T21:16:59.902Z,6.24
2023-01-15T21:19:27.646Z,6.25
2023-01-15T21:21:55.802Z,6.25
2023-01-15T21:24:23.746Z,6.29
2023-01-15T21:26:51.591Z,6.33
2023-01-15T21:29:19.763Z,6.35
2023-01-15T21:31:47.851Z,6.37
2023-01-15T21:34:16.015Z,6.35
2023-01-15T21:36:43.962Z,6.33
2023-01-15T21:39:11.989Z,6.28
2023-01-15T21:41:57.421Z,6.23
2023-01-15T21:44:43.530Z,6.16
2023-01-15T21:47:11.390Z,6.10
2023-01-15T21:49:39.181Z,6.06
2023-01-15T21:52:07.594Z,6.03
2023-01-15T21:54:35.592Z,6.01
2023-01-15T21:57:03.465Z,5.98
2023-01-15T21:59:31.635Z,5.95
2023-01-15T22:01:59.714Z,5.93
2023-01-15T22:04:28.799Z,5.94
2023-01-15T22:06:56.727Z,5.94
2023-01-15T22:09:24.594Z,5.94
2023-01-15T22:11:52.856Z,5.92
2023-01-15T22:14:23.543Z,5.96
2023-01-15T22:16:51.848Z,5.97
2023-01-15T22:19:20.905Z,5.93
2023-01-15T22:21:48.891Z,5.86
2023-01-15T22:24:16.659Z,5.75
2023-01-15T22:26:49.229Z,5.62
2023-01-15T22:29:17.793Z,5.53
2023-01-15T22:31:45.515Z,5.46
2023-01-15T22:34:13.226Z,5.42
2023-01-15T22:36:41.045Z,5.35
2023-01-15T22:39:08.870Z,5.32
2023-01-15T22:41:59.659Z,5.27
2023-01-15T22:44:27.477Z,5.18
2023-01-15T22:46:55.615Z,5.13
2023-01-15T22:49:23.497Z,5.05
2023-01-15T22:51:51.185Z,4.99
2023-01-15T22:54:19.731Z,4.98
2023-01-15T22:56:47.530Z,4.94
2023-01-15T22:59:15.250Z,4.91
2023-01-15T23:01:43.076Z,4.88
2023-01-15T23:04:11.049Z,4.86
2023-01-15T23:06:39.582Z,4.86
2023-01-15T23:09:07.640Z,4.84
2023-01-15T23:11:35.427Z,4.82
2023-01-15T23:14:03.155Z,4.80
2023-01-15T23:16:30.875Z,4.79
2023-01-15T23:18:59.146Z,4.79
2023-01-15T23:21:26.969Z,4.78
2023-01-15T23:23:54.657Z,4.80
2023-01-15T23:26:22.446Z,4.86
2023-01-15T23:28:51.033Z,4.93
2023-01-15T23:31:20.786Z,4.96
2023-01-15T23:33:48.616Z,4.96
2023-01-15T23:36:16.388Z,4.99
2023-01-15T23:38:44.176Z,5.03
2023-01-15T23:41:13.980Z,5.08
2023-01-15T23:43:59.314Z,5.08
2023-01-15T23:46:36.331Z,5.08
2023-01-15T23:49:04.194Z,5.07
2023-01-15T23:51:31.899Z,5.06
2023-01-15T23:53:59.899Z,5.06
2023-01-15T23:56:27.623Z,5.11
2023-01-15T23:58:55.477Z,5.19
